Time;durP1;ratioP1;P1;durP2;ratioP2;P2;SDS_P1;SDS_P2;PMS_P1;PMS_P2;Temp;Humidity;BMP_temperature;BMP_pressure;BME280_temperature;BME280_humidity;BME280_pressure;Samples;Min_cycle;Max_cycle;Signal;HPM_P1;HPM_P2
2021/08/22 00:00:33;;;;;;;;;7.33;6.33;;;;;;;;5019967;28;45993;-87
2021/08/22 00:02:59;;;;;;;;;5.33;5.33;;;;;;;;5025188;28;45776;-86
2021/08/22 00:05:24;;;;;;;;;5.00;5.00;;;;;;;;5026789;28;45511;-86
2021/08/22 00:07:50;;;;;;;;;5.50;5.50;;;;;;;;5027241;28;46131;-86
2021/08/22 00:10:15;;;;;;;;;5.75;5.75;;;;;;;;5028292;28;45788;-86
2021/08/22 00:12:40;;;;;;;;;4.75;4.75;;;;;;;;5026759;28;45560;-86
2021/08/22 00:15:06;;;;;;;;;7.00;6.00;;;;;;;;5017791;28;45574;-86
2021/08/22 00:17:32;;;;;;;;;7.25;5.00;;;;;;;;5027008;28;45482;-86
2021/08/22 00:19:57;;;;;;;;;8.00;7.00;;;;;;;;5022384;28;45644;-86
2021/08/22 00:22:22;;;;;;;;;7.33;6.00;;;;;;;;5022552;28;45486;-86
2021/08/22 00:24:47;;;;;;;;;5.00;5.00;;;;;;;;5031561;28;45586;-86
2021/08/22 00:27:13;;;;;;;;;5.00;5.00;;;;;;;;5015608;28;46997;-86
2021/08/22 00:29:38;;;;;;;;;6.75;5.50;;;;;;;;5020205;28;45258;-86
2021/08/22 00:32:04;;;;;;;;;4.75;4.75;;;;;;;;5025664;28;50687;-86
2021/08/22 00:34:30;;;;;;;;;6.75;5.50;;;;;;;;5019884;28;45574;-86
2021/08/22 00:36:55;;;;;;;;;6.00;6.00;;;;;;;;5027763;28;47488;-86
2021/08/22 00:39:22;;;;;;;;;5.50;5.50;;;;;;;;5022769;28;45627;-86
2021/08/22 00:41:47;;;;;;;;;7.75;6.75;;;;;;;;5021488;28;45866;-85
2021/08/22 00:44:12;;;;;;;;;7.67;5.33;;;;;;;;5023003;28;45485;-86
2021/08/22 00:46:37;;;;;;;;;7.00;6.75;;;;;;;;5027323;28;46257;-86
2021/08/22 00:49:07;;;;;;;;;4.00;4.00;;;;;;;;5020554;28;45457;-86
2021/08/22 00:51:33;;;;;;;;;4.00;4.00;;;;;;;;5021514;28;45529;-86
2021/08/22 00:53:58;;;;;;;;;4.50;4.50;;;;;;;;5020235;28;55963;-86
2021/08/22 00:56:24;;;;;;;;;5.25;5.25;;;;;;;;5012187;28;47044;-86
2021/08/22 00:58:49;;;;;;;;;6.00;6.00;;;;;;;;5026628;28;45739;-86
2021/08/22 01:01:20;;;;;;;;;5.67;5.33;;;;;;;;5026834;28;45653;-86
2021/08/22 01:03:55;;;;;;;;;5.50;5.25;;;;;;;;5025894;28;45424;-86
2021/08/22 01:06:41;;;;;;;;;8.75;6.50;;;;;;;;5024996;28;46616;-86
2021/08/22 01:09:10;;;;;;;;;5.00;5.00;;;;;;;;5018866;28;45674;-86
2021/08/22 01:11:37;;;;;;;;;5.00;5.00;;;;;;;;5023932;28;45391;-86
2021/08/22 01:14:10;;;;;;;;;8.25;6.00;;;;;;;;5021873;28;45519;-86
2021/08/22 01:16:38;;;;;;;;;5.25;5.00;;;;;;;;5026088;28;45613;-86
2021/08/22 01:19:09;;;;;;;;;6.25;5.50;;;;;;;;5026912;28;45526;-86
2021/08/22 01:21:34;;;;;;;;;7.25;5.00;;;;;;;;5022509;28;45640;-86
2021/08/22 01:24:03;;;;;;;;;10.00;7.50;;;;;;;;5024116;28;46253;-86
2021/08/22 01:26:30;;;;;;;;;7.50;6.00;;;;;;;;5030652;28;45775;-86
2021/08/22 01:28:58;;;;;;;;;5.00;5.00;;;;;;;;5020001;28;45632;-86
2021/08/22 01:31:25;;;;;;;;;6.25;6.00;;;;;;;;5007955;28;45540;-86
2021/08/22 01:33:53;;;;;;;;;8.25;7.25;;;;;;;;5021739;28;45581;-86
2021/08/22 01:36:20;;;;;;;;;7.00;6.00;;;;;;;;5024979;28;45537;-86
2021/08/22 01:38:46;;;;;;;;;8.25;8.00;;;;;;;;5019676;28;45389;-86
2021/08/22 01:41:11;;;;;;;;;6.00;6.00;;;;;;;;5003724;28;47009;-86
2021/08/22 01:43:37;;;;;;;;;10.75;7.75;;;;;;;;5026510;28;45598;-86
2021/08/22 01:46:06;;;;;;;;;7.25;5.00;;;;;;;;5026647;28;45498;-86
2021/08/22 01:48:31;;;;;;;;;10.00;8.25;;;;;;;;5015336;28;45798;-86
2021/08/22 01:50:57;;;;;;;;;7.50;5.00;;;;;;;;5018590;28;45327;-86
2021/08/22 01:53:23;;;;;;;;;6.50;5.00;;;;;;;;5022760;28;45620;-86
2021/08/22 01:55:48;;;;;;;;;5.50;5.00;;;;;;;;5022220;28;46650;-86
2021/08/22 01:58:13;;;;;;;;;6.50;6.25;;;;;;;;5019847;28;45434;-86
2021/08/22 02:00:38;;;;;;;;;6.00;6.00;;;;;;;;5022577;28;45443;-86
2021/08/22 02:03:08;;;;;;;;;7.00;6.25;;;;;;;;5024024;28;45481;-86
2021/08/22 02:05:36;;;;;;;;;7.00;5.00;;;;;;;;5016110;28;46467;-86
2021/08/22 02:08:02;;;;;;;;;5.25;5.00;;;;;;;;5024774;28;45550;-86
2021/08/22 02:10:31;;;;;;;;;4.75;4.25;;;;;;;;5010626;28;45397;-86
2021/08/22 02:12:59;;;;;;;;;5.00;5.00;;;;;;;;5025979;28;45554;-86
2021/08/22 02:15:30;;;;;;;;;7.00;6.50;;;;;;;;5020630;28;52946;-87
2021/08/22 02:17:56;;;;;;;;;5.25;4.75;;;;;;;;5020646;28;45558;-86
2021/08/22 02:20:21;;;;;;;;;5.33;3.33;;;;;;;;5023413;28;45312;-86
2021/08/22 02:22:47;;;;;;;;;6.50;4.75;;;;;;;;5007084;28;46392;-86
2021/08/22 02:25:13;;;;;;;;;6.50;5.00;;;;;;;;5028004;28;46888;-86
2021/08/22 02:27:39;;;;;;;;;5.75;5.00;;;;;;;;5028298;28;45742;-86
2021/08/22 02:30:04;;;;;;;;;7.75;5.50;;;;;;;;5009891;28;45507;-86
2021/08/22 02:32:30;;;;;;;;;6.00;6.00;;;;;;;;5031407;28;45431;-86
2021/08/22 02:34:55;;;;;;;;;5.50;5.50;;;;;;;;5025167;28;46467;-86
2021/08/22 02:37:21;;;;;;;;;7.00;6.00;;;;;;;;5026516;28;45529;-86
2021/08/22 02:39:47;;;;;;;;;6.00;5.00;;;;;;;;5027418;28;46298;-86
2021/08/22 02:42:13;;;;;;;;;5.50;5.25;;;;;;;;5007352;28;45661;-86
2021/08/22 02:44:38;;;;;;;;;4.00;4.00;;;;;;;;5029111;28;45541;-86
2021/08/22 02:47:03;;;;;;;;;5.00;3.33;;;;;;;;5027586;28;45584;-86
2021/08/22 02:49:28;;;;;;;;;3.75;3.75;;;;;;;;5012784;28;46958;-86
2021/08/22 02:51:53;;;;;;;;;5.67;4.67;;;;;;;;5028496;28;45506;-86
2021/08/22 02:54:19;;;;;;;;;6.00;6.00;;;;;;;;5014814;28;47989;-87
2021/08/22 02:56:44;;;;;;;;;3.67;3.00;;;;;;;;5033745;28;45364;-87
2021/08/22 02:59:09;;;;;;;;;7.00;4.00;;;;;;;;5026864;28;45579;-87
2021/08/22 03:01:34;;;;;;;;;6.00;4.67;;;;;;;;5014403;28;45792;-86
2021/08/22 03:03:59;;;;;;;;;4.67;4.67;;;;;;;;5021754;28;46541;-86
2021/08/22 03:06:25;;;;;;;;;6.00;5.67;;;;;;;;5028031;28;45648;-86
2021/08/22 03:08:50;;;;;;;;;6.75;4.00;;;;;;;;5023920;28;45593;-86
2021/08/22 03:11:16;;;;;;;;;3.67;3.67;;;;;;;;5026143;28;52735;-86
2021/08/22 03:13:41;;;;;;;;;7.75;5.75;;;;;;;;5024641;28;51067;-87
2021/08/22 03:16:06;;;;;;;;;6.00;4.33;;;;;;;;5028560;28;45579;-86
2021/08/22 03:18:31;;;;;;;;;4.33;4.33;;;;;;;;5026494;28;45510;-86
2021/08/22 03:20:57;;;;;;;;;4.00;4.00;;;;;;;;5007712;28;45409;-86
2021/08/22 03:23:22;;;;;;;;;4.67;4.67;;;;;;;;5014762;28;47052;-86
2021/08/22 03:25:47;;;;;;;;;6.33;5.33;;;;;;;;5012702;28;46009;-86
2021/08/22 03:28:12;;;;;;;;;4.75;4.75;;;;;;;;5022380;28;45492;-86
2021/08/22 03:30:37;;;;;;;;;5.33;5.33;;;;;;;;5023593;28;45542;-86
2021/08/22 03:33:03;;;;;;;;;6.00;4.00;;;;;;;;5021876;28;45493;-86
2021/08/22 03:35:28;;;;;;;;;5.00;5.00;;;;;;;;5013520;28;45463;-86
2021/08/22 03:37:53;;;;;;;;;6.00;3.50;;;;;;;;5026963;28;45644;-86
2021/08/22 03:40:18;;;;;;;;;4.25;3.50;;;;;;;;5022776;28;45555;-86
2021/08/22 03:42:44;;;;;;;;;4.75;4.75;;;;;;;;5028163;28;47177;-85
2021/08/22 03:45:09;;;;;;;;;6.00;6.00;;;;;;;;5021673;28;45545;-86
2021/08/22 03:47:34;;;;;;;;;5.50;4.75;;;;;;;;5027441;28;45545;-85
2021/08/22 03:49:59;;;;;;;;;4.33;4.00;;;;;;;;5026526;28;45669;-86
2021/08/22 03:52:24;;;;;;;;;6.00;5.00;;;;;;;;5023512;28;46286;-86
2021/08/22 03:54:50;;;;;;;;;7.33;4.00;;;;;;;;5025824;28;45613;-86
2021/08/22 03:57:15;;;;;;;;;7.00;5.00;;;;;;;;5026550;28;45327;-86
2021/08/22 03:59:40;;;;;;;;;7.67;4.67;;;;;;;;5023953;28;45512;-86
2021/08/22 04:02:06;;;;;;;;;6.00;6.00;;;;;;;;5025869;28;46550;-86
2021/08/22 04:04:31;;;;;;;;;6.25;5.25;;;;;;;;5025714;28;45457;-86
2021/08/22 04:06:57;;;;;;;;;6.00;5.00;;;;;;;;5028397;28;45289;-86
2021/08/22 04:09:24;;;;;;;;;9.33;6.00;;;;;;;;5004046;28;54327;-87
2021/08/22 04:11:54;;;;;;;;;10.00;5.00;;;;;;;;5026090;28;47507;-86
2021/08/22 04:14:20;;;;;;;;;5.00;5.00;;;;;;;;5025360;28;45568;-86
2021/08/22 04:16:45;;;;;;;;;8.25;6.75;;;;;;;;5009244;28;45467;-86
2021/08/22 04:19:10;;;;;;;;;6.67;4.33;;;;;;;;5022135;28;45444;-86
2021/08/22 04:21:35;;;;;;;;;4.00;4.00;;;;;;;;5024749;28;46692;-86
2021/08/22 04:24:00;;;;;;;;;6.00;5.00;;;;;;;;5025953;28;45428;-86
2021/08/22 04:26:26;;;;;;;;;6.25;5.00;;;;;;;;5024909;28;45560;-86
2021/08/22 04:28:51;;;;;;;;;6.75;5.25;;;;;;;;5028115;28;45431;-86
2021/08/22 04:31:16;;;;;;;;;7.33;5.67;;;;;;;;5018715;28;47042;-86
2021/08/22 04:33:41;;;;;;;;;5.00;5.00;;;;;;;;5024843;28;45457;-86
2021/08/22 04:36:06;;;;;;;;;7.33;5.00;;;;;;;;5021833;28;45614;-86
2021/08/22 04:38:34;;;;;;;;;6.00;5.67;;;;;;;;5007399;28;45580;-86
2021/08/22 04:40:59;;;;;;;;;6.00;5.25;;;;;;;;5028056;28;46667;-87
2021/08/22 04:43:25;;;;;;;;;5.00;4.00;;;;;;;;5027062;28;46393;-87
2021/08/22 04:45:50;;;;;;;;;6.75;5.00;;;;;;;;5022301;28;45586;-86
2021/08/22 04:48:15;;;;;;;;;5.00;4.50;;;;;;;;5026899;28;46013;-86
2021/08/22 04:50:40;;;;;;;;;5.33;4.33;;;;;;;;5029787;28;45703;-86
2021/08/22 04:53:05;;;;;;;;;7.50;5.25;;;;;;;;5011240;28;45456;-86
2021/08/22 04:55:31;;;;;;;;;4.00;4.00;;;;;;;;5022520;28;45614;-86
2021/08/22 04:57:56;;;;;;;;;6.33;4.67;;;;;;;;5030204;28;45588;-86
2021/08/22 05:00:21;;;;;;;;;6.00;4.67;;;;;;;;5008226;28;47085;-86
2021/08/22 05:02:46;;;;;;;;;6.25;5.00;;;;;;;;5029226;28;45312;-86
2021/08/22 05:05:11;;;;;;;;;4.67;4.67;;;;;;;;5024961;28;45376;-86
2021/08/22 05:07:37;;;;;;;;;9.00;6.33;;;;;;;;5025442;28;45594;-86
2021/08/22 05:10:02;;;;;;;;;5.33;4.67;;;;;;;;5026962;28;46973;-87
2021/08/22 05:12:27;;;;;;;;;6.50;4.75;;;;;;;;5025114;28;45501;-86
2021/08/22 05:14:52;;;;;;;;;4.50;3.00;;;;;;;;5024788;28;45305;-86
2021/08/22 05:17:18;;;;;;;;;5.00;5.00;;;;;;;;5026833;28;45630;-85
2021/08/22 05:19:43;;;;;;;;;4.00;4.00;;;;;;;;5011896;28;47125;-86
2021/08/22 05:22:08;;;;;;;;;6.50;4.25;;;;;;;;5025091;28;45483;-86
2021/08/22 05:24:33;;;;;;;;;5.50;5.00;;;;;;;;5023975;28;45575;-86
2021/08/22 05:26:59;;;;;;;;;5.25;4.00;;;;;;;;5022699;28;45504;-87
2021/08/22 05:29:24;;;;;;;;;4.00;3.00;;;;;;;;5025078;28;45499;-86
2021/08/22 05:31:49;;;;;;;;;7.00;4.75;;;;;;;;5023301;28;45509;-86
2021/08/22 05:34:14;;;;;;;;;4.75;4.75;;;;;;;;5012251;28;45401;-86
2021/08/22 05:36:40;;;;;;;;;6.00;5.00;;;;;;;;5027632;28;45481;-86
2021/08/22 05:39:06;;;;;;;;;5.75;5.25;;;;;;;;5027264;28;46499;-86
2021/08/22 05:41:31;;;;;;;;;5.00;3.50;;;;;;;;5030939;28;45347;-87
2021/08/22 05:43:56;;;;;;;;;4.50;4.00;;;;;;;;5021552;28;45553;-86
2021/08/22 05:46:21;;;;;;;;;5.33;5.33;;;;;;;;5023941;28;45477;-86
2021/08/22 05:48:47;;;;;;;;;3.25;3.25;;;;;;;;5023803;28;45542;-86
2021/08/22 05:51:16;;;;;;;;;7.25;4.50;;;;;;;;5010312;28;46067;-87
2021/08/22 05:53:42;;;;;;;;;5.50;3.75;;;;;;;;5007996;28;45873;-86
2021/08/22 05:56:07;;;;;;;;;4.50;3.25;;;;;;;;5017732;28;53880;-86
2021/08/22 05:58:32;;;;;;;;;5.33;5.00;;;;;;;;5014816;28;47093;-86
2021/08/22 06:00:57;;;;;;;;;6.00;4.00;;;;;;;;5028915;28;45442;-86
2021/08/22 06:03:22;;;;;;;;;6.00;4.00;;;;;;;;5008723;28;45647;-86
2021/08/22 06:05:50;;;;;;;;;4.67;4.67;;;;;;;;5015549;28;45444;-86
2021/08/22 06:08:15;;;;;;;;;4.00;3.00;;;;;;;;5026661;28;45635;-87
2021/08/22 06:10:40;;;;;;;;;5.50;5.00;;;;;;;;5028961;28;45488;-86
2021/08/22 06:13:05;;;;;;;;;6.00;3.00;;;;;;;;5016337;28;45306;-86
2021/08/22 06:15:30;;;;;;;;;5.67;4.67;;;;;;;;5025371;28;45542;-86
2021/08/22 06:17:56;;;;;;;;;10.50;4.50;;;;;;;;5027591;28;46209;-86
2021/08/22 06:20:21;;;;;;;;;4.00;4.00;;;;;;;;5031831;28;45624;-86
2021/08/22 06:22:46;;;;;;;;;8.50;5.00;;;;;;;;5031865;28;45540;-86
2021/08/22 06:25:11;;;;;;;;;3.75;3.75;;;;;;;;5014034;28;45684;-86
2021/08/22 06:27:37;;;;;;;;;6.67;4.00;;;;;;;;5023672;28;45565;-86
2021/08/22 06:30:02;;;;;;;;;5.75;5.00;;;;;;;;5014948;28;45578;-87
2021/08/22 06:32:27;;;;;;;;;8.00;4.25;;;;;;;;5030466;28;45477;-86
2021/08/22 06:34:52;;;;;;;;;5.00;3.75;;;;;;;;5025803;28;48260;-86
2021/08/22 06:37:18;;;;;;;;;7.00;4.00;;;;;;;;5028570;28;46167;-86
2021/08/22 06:39:47;;;;;;;;;6.75;3.75;;;;;;;;5023676;28;45462;-86
2021/08/22 06:42:12;;;;;;;;;6.25;4.25;;;;;;;;5025480;28;45868;-86
2021/08/22 06:44:39;;;;;;;;;9.00;4.00;;;;;;;;5027988;28;45550;-86
2021/08/22 06:47:04;;;;;;;;;4.25;3.50;;;;;;;;5028527;28;46223;-86
2021/08/22 06:49:29;;;;;;;;;6.75;4.00;;;;;;;;5022713;28;45417;-87
2021/08/22 06:51:55;;;;;;;;;6.00;5.00;;;;;;;;5023887;28;45489;-86
2021/08/22 06:54:20;;;;;;;;;4.75;4.00;;;;;;;;5021316;28;45636;-86
2021/08/22 06:56:45;;;;;;;;;4.00;2.33;;;;;;;;5028808;28;46497;-86
2021/08/22 06:59:10;;;;;;;;;5.67;3.00;;;;;;;;5029404;28;45884;-86
2021/08/22 07:01:36;;;;;;;;;6.00;3.00;;;;;;;;5027084;28;45498;-85
2021/08/22 07:04:01;;;;;;;;;4.50;3.00;;;;;;;;5011677;28;45319;-86
2021/08/22 07:06:26;;;;;;;;;4.67;3.67;;;;;;;;5024973;28;46742;-86
2021/08/22 07:08:51;;;;;;;;;4.00;4.00;;;;;;;;5026810;28;45416;-86
2021/08/22 07:11:17;;;;;;;;;6.33;4.00;;;;;;;;5011548;28;45494;-86
2021/08/22 07:13:42;;;;;;;;;3.75;3.75;;;;;;;;5006423;28;45575;-86
2021/08/22 07:16:07;;;;;;;;;6.00;4.67;;;;;;;;5031335;28;46381;-87
2021/08/22 07:18:33;;;;;;;;;5.50;5.00;;;;;;;;5027806;28;45428;-86
2021/08/22 07:20:58;;;;;;;;;5.00;3.00;;;;;;;;5026123;28;45540;-85
2021/08/22 07:23:23;;;;;;;;;3.75;3.50;;;;;;;;5027886;28;45577;-85
2021/08/22 07:25:50;;;;;;;;;4.25;4.00;;;;;;;;5004876;28;47418;-87
2021/08/22 07:28:16;;;;;;;;;5.50;4.50;;;;;;;;5025927;28;45773;-88
2021/08/22 07:30:41;;;;;;;;;4.00;3.00;;;;;;;;5020680;28;47070;-89
2021/08/22 07:33:06;;;;;;;;;3.75;3.00;;;;;;;;5024565;28;46899;-87
2021/08/22 07:35:31;;;;;;;;;3.00;3.00;;;;;;;;5026727;28;46447;-88
2021/08/22 07:37:57;;;;;;;;;6.00;3.00;;;;;;;;5026055;28;45494;-88
2021/08/22 07:40:22;;;;;;;;;5.33;2.00;;;;;;;;5023001;28;45625;-88
2021/08/22 07:42:47;;;;;;;;;3.00;3.00;;;;;;;;5030298;28;45474;-88
2021/08/22 07:45:12;;;;;;;;;5.00;4.00;;;;;;;;5024682;28;45499;-88
2021/08/22 07:47:38;;;;;;;;;4.50;4.25;;;;;;;;5028592;28;45460;-88
2021/08/22 07:50:03;;;;;;;;;3.67;3.67;;;;;;;;5023613;28;45542;-88
2021/08/22 07:52:28;;;;;;;;;4.75;4.00;;;;;;;;5022545;28;45562;-88
2021/08/22 07:54:53;;;;;;;;;4.50;4.00;;;;;;;;5033028;28;45537;-88
2021/08/22 07:57:19;;;;;;;;;5.50;4.00;;;;;;;;5025295;28;45357;-87
2021/08/22 07:59:44;;;;;;;;;4.50;2.75;;;;;;;;5034984;28;45452;-88
2021/08/22 08:02:09;;;;;;;;;7.00;3.75;;;;;;;;5031535;28;45400;-87
2021/08/22 08:04:35;;;;;;;;;5.67;5.00;;;;;;;;5031658;28;46213;-88
2021/08/22 08:07:00;;;;;;;;;6.25;4.00;;;;;;;;5036402;28;45645;-87
2021/08/22 08:09:25;;;;;;;;;2.00;1.67;;;;;;;;5032536;28;45364;-88
2021/08/22 08:11:50;;;;;;;;;4.25;3.25;;;;;;;;5029528;28;51025;-89
2021/08/22 08:14:16;;;;;;;;;2.00;2.00;;;;;;;;5033911;28;46067;-89
2021/08/22 08:16:42;;;;;;;;;2.00;2.00;;;;;;;;5036223;28;45438;-87
2021/08/22 08:19:09;;;;;;;;;1.25;1.25;;;;;;;;5034524;28;45427;-88
2021/08/22 08:21:34;;;;;;;;;4.33;3.00;;;;;;;;5015537;28;45492;-87
2021/08/22 08:23:59;;;;;;;;;3.00;2.00;;;;;;;;5019430;28;47370;-88
2021/08/22 08:26:24;;;;;;;;;2.00;2.00;;;;;;;;5043188;28;44965;-89
2021/08/22 08:28:49;;;;;;;;;3.00;3.00;;;;;;;;5036248;28;45366;-88
2021/08/22 08:31:16;;;;;;;;;3.00;3.00;;;;;;;;5018607;28;45558;-88
2021/08/22 08:33:42;;;;;;;;;4.75;2.00;;;;;;;;5035178;28;46215;-87
2021/08/22 08:36:07;;;;;;;;;5.67;4.00;;;;;;;;5017220;28;45757;-86
2021/08/22 08:38:32;;;;;;;;;28.00;23.33;;;;;;;;5016498;28;45413;-88
2021/08/22 08:40:59;;;;;;;;;15.33;10.33;;;;;;;;5036742;28;45553;-88
2021/08/22 08:43:25;;;;;;;;;5.50;3.00;;;;;;;;5036147;28;45634;-88
2021/08/22 08:46:09;;;;;;;;;7.67;6.00;;;;;;;;5033730;28;45481;-89
2021/08/22 08:48:38;;;;;;;;;23.50;20.25;;;;;;;;5034483;28;44947;-88
2021/08/22 08:51:18;;;;;;;;;43.75;33.25;;;;;;;;5033492;28;44970;-88
2021/08/22 08:53:46;;;;;;;;;6.25;5.75;;;;;;;;5032773;28;45565;-88
2021/08/22 08:56:15;;;;;;;;;1.75;1.75;;;;;;;;5037881;28;45856;-88
2021/08/22 08:58:40;;;;;;;;;2.00;2.00;;;;;;;;5035664;28;45719;-89
2021/08/22 09:01:05;;;;;;;;;2.33;2.33;;;;;;;;5034190;28;45443;-88
2021/08/22 09:03:31;;;;;;;;;3.00;1.25;;;;;;;;5016489;28;48239;-89
2021/08/22 09:06:11;;;;;;;;;1.75;1.00;;;;;;;;5032387;28;45535;-88
2021/08/22 09:08:48;;;;;;;;;2.50;1.75;;;;;;;;5034338;28;45592;-89
2021/08/22 09:11:32;;;;;;;;;2.00;2.00;;;;;;;;5033880;28;45489;-88
2021/08/22 09:14:03;;;;;;;;;4.25;1.75;;;;;;;;5030706;28;45495;-88
2021/08/22 09:16:34;;;;;;;;;4.00;2.75;;;;;;;;5036667;28;45642;-87
2021/08/22 09:19:02;;;;;;;;;3.00;1.75;;;;;;;;5035339;28;45742;-89
2021/08/22 09:21:59;;;;;;;;;2.00;2.00;;;;;;;;5032981;28;45649;-86
2021/08/22 09:24:30;;;;;;;;;2.00;2.00;;;;;;;;4969182;28;45540;-87
2021/08/22 09:27:14;;;;;;;;;1.75;1.75;;;;;;;;4972138;28;45505;-85
2021/08/22 09:29:58;;;;;;;;;1.25;1.25;;;;;;;;4972223;28;45484;-86
2021/08/22 09:32:35;;;;;;;;;2.00;2.00;;;;;;;;4955261;28;45741;-87
2021/08/22 09:35:19;;;;;;;;;1.00;1.00;;;;;;;;4950426;28;47502;-87
2021/08/22 09:38:02;;;;;;;;;10.75;6.50;;;;;;;;4970209;28;45737;-86
2021/08/22 09:40:46;;;;;;;;;7.50;6.25;;;;;;;;4971973;28;45554;-87
2021/08/22 09:43:14;;;;;;;;;2.00;1.75;;;;;;;;4972290;28;45847;-87
2021/08/22 09:45:51;;;;;;;;;3.75;3.75;;;;;;;;4966744;28;46249;-87
2021/08/22 09:48:35;;;;;;;;;3.00;3.00;;;;;;;;4974207;28;45603;-88
2021/08/22 09:51:02;;;;;;;;;3.00;2.75;;;;;;;;4971482;28;45496;-87
2021/08/22 09:53:46;;;;;;;;;8.50;3.00;;;;;;;;4955965;28;45425;-87
2021/08/22 09:56:20;;;;;;;;;4.00;4.00;;;;;;;;4983546;28;45559;-87
2021/08/22 09:59:04;;;;;;;;;4.25;2.75;;;;;;;;4974687;28;45438;-86
2021/08/22 10:01:38;;;;;;;;;2.00;2.00;;;;;;;;5036928;28;45423;-87
2021/08/22 10:04:04;;;;;;;;;5.25;1.75;;;;;;;;5040013;28;45617;-88
2021/08/22 10:06:32;;;;;;;;;1.33;1.00;;;;;;;;5037133;28;45166;-87
2021/08/22 10:08:59;;;;;;;;;2.00;2.00;;;;;;;;5033604;28;45391;-88
2021/08/22 10:11:28;;;;;;;;;3.50;3.00;;;;;;;;5034250;28;45583;-88
2021/08/22 10:13:53;;;;;;;;;1.75;1.75;;;;;;;;5031612;28;45522;-87
2021/08/22 10:16:19;;;;;;;;;1.00;1.00;;;;;;;;5032929;28;46299;-88
2021/08/22 10:18:44;;;;;;;;;0.25;0.25;;;;;;;;5031433;28;45458;-86
2021/08/22 10:21:11;;;;;;;;;0.75;0.75;;;;;;;;5031861;28;45707;-87
2021/08/22 10:23:40;;;;;;;;;3.25;1.00;;;;;;;;5034136;28;45581;-87
2021/08/22 10:26:06;;;;;;;;;1.00;1.00;;;;;;;;5035373;28;47584;-87
2021/08/22 10:28:44;;;;;;;;;3.50;1.00;;;;;;;;5032890;28;45537;-88
2021/08/22 10:31:09;;;;;;;;;1.75;1.00;;;;;;;;5033028;28;45513;-87
2021/08/22 10:33:34;;;;;;;;;1.75;1.00;;;;;;;;5032467;28;46596;-87
2021/08/22 10:36:18;;;;;;;;;0.00;0.00;;;;;;;;5014492;28;47505;-87
2021/08/22 10:38:44;;;;;;;;;1.00;0.00;;;;;;;;5033232;28;45364;-89
2021/08/22 10:41:29;;;;;;;;;0.00;0.00;;;;;;;;5033576;28;45491;-86
2021/08/22 10:43:54;;;;;;;;;0.75;0.00;;;;;;;;5035676;28;45316;-88
2021/08/22 10:46:39;;;;;;;;;1.00;1.00;;;;;;;;5036219;28;45582;-87
2021/08/22 10:49:05;;;;;;;;;0.00;0.00;;;;;;;;5018084;28;45402;-87
2021/08/22 10:51:30;;;;;;;;;0.00;0.00;;;;;;;;5035056;28;45583;-87
2021/08/22 10:54:15;;;;;;;;;0.00;0.00;;;;;;;;5035160;28;45429;-86
2021/08/22 10:56:40;;;;;;;;;1.00;1.00;;;;;;;;5038449;28;45471;-88
2021/08/22 10:59:09;;;;;;;;;1.75;0.75;;;;;;;;5034557;28;46635;-87
2021/08/22 11:01:38;;;;;;;;;1.00;1.00;;;;;;;;5034666;28;45854;-88
2021/08/22 11:04:06;;;;;;;;;2.00;1.00;;;;;;;;5036350;28;45446;-88
2021/08/22 11:06:32;;;;;;;;;1.00;1.00;;;;;;;;5033909;28;45366;-87
2021/08/22 11:08:58;;;;;;;;;2.25;1.00;;;;;;;;5034629;28;45584;-88
2021/08/22 11:11:23;;;;;;;;;1.00;1.00;;;;;;;;5035743;28;45791;-88
2021/08/22 11:14:06;;;;;;;;;2.00;2.00;;;;;;;;5033401;28;45410;-87
2021/08/22 11:16:38;;;;;;;;;1.00;1.00;;;;;;;;5031514;28;45510;-87
2021/08/22 11:19:04;;;;;;;;;1.75;1.00;;;;;;;;5027589;28;45992;-87
2021/08/22 11:21:29;;;;;;;;;1.00;1.00;;;;;;;;5015897;28;45444;-87
2021/08/22 11:23:58;;;;;;;;;2.50;1.00;;;;;;;;5036460;28;45516;-87
2021/08/22 11:26:24;;;;;;;;;0.00;0.00;;;;;;;;5034549;28;45908;-88
2021/08/22 11:28:53;;;;;;;;;1.75;1.00;;;;;;;;5033977;28;50481;-88
2021/08/22 11:31:18;;;;;;;;;1.50;1.50;;;;;;;;5036290;28;45399;-87
2021/08/22 11:33:44;;;;;;;;;1.00;0.00;;;;;;;;5033201;28;45518;-87
2021/08/22 11:36:09;;;;;;;;;1.00;1.00;;;;;;;;5032762;28;46073;-87
2021/08/22 11:38:34;;;;;;;;;1.00;1.00;;;;;;;;5036611;28;45438;-88
2021/08/22 11:41:01;;;;;;;;;1.00;1.00;;;;;;;;5016082;28;45652;-87
2021/08/22 11:43:27;;;;;;;;;0.00;0.00;;;;;;;;5034853;28;45521;-87
2021/08/22 11:45:52;;;;;;;;;4.00;2.00;;;;;;;;5032931;28;45621;-87
2021/08/22 11:48:19;;;;;;;;;1.00;1.00;;;;;;;;5033965;28;45506;-87
2021/08/22 11:50:44;;;;;;;;;1.25;0.75;;;;;;;;5034612;28;45841;-87
2021/08/22 11:53:10;;;;;;;;;1.00;0.75;;;;;;;;5032990;28;45626;-88
2021/08/22 11:55:36;;;;;;;;;1.25;1.00;;;;;;;;5033298;28;45616;-87
2021/08/22 11:58:12;;;;;;;;;1.00;1.00;;;;;;;;5036087;28;45341;-87
2021/08/22 12:00:39;;;;;;;;;1.00;1.00;;;;;;;;5031394;28;45401;-88
2021/08/22 12:03:04;;;;;;;;;2.25;0.75;;;;;;;;5015341;28;45458;-87
2021/08/22 12:05:30;;;;;;;;;2.00;0.75;;;;;;;;5034736;28;45470;-87
2021/08/22 12:08:01;;;;;;;;;0.50;0.50;;;;;;;;5032167;28;45643;-87
2021/08/22 12:10:30;;;;;;;;;1.50;1.50;;;;;;;;5035065;28;45579;-87
2021/08/22 12:12:56;;;;;;;;;1.00;1.00;;;;;;;;5014258;28;45472;-87
2021/08/22 12:15:35;;;;;;;;;2.00;1.00;;;;;;;;5032814;28;45540;-87
2021/08/22 12:18:15;;;;;;;;;2.00;1.00;;;;;;;;5028441;28;45468;-87
2021/08/22 12:20:41;;;;;;;;;2.00;0.50;;;;;;;;5034765;28;45800;-88
2021/08/22 12:23:07;;;;;;;;;3.50;1.00;;;;;;;;5030539;28;45363;-88
2021/08/22 12:25:34;;;;;;;;;1.00;1.00;;;;;;;;5017177;28;47181;-87
2021/08/22 12:28:18;;;;;;;;;1.75;1.75;;;;;;;;5035105;28;45376;-89
2021/08/22 12:30:43;;;;;;;;;3.25;1.00;;;;;;;;5032235;28;45619;-87
2021/08/22 12:33:29;;;;;;;;;2.50;2.00;;;;;;;;5033313;28;45774;-88
2021/08/22 12:36:11;;;;;;;;;5.75;4.00;;;;;;;;5011352;28;48146;-88
2021/08/22 12:38:40;;;;;;;;;1.00;1.00;;;;;;;;5035172;28;45454;-87
2021/08/22 12:41:22;;;;;;;;;7.00;3.50;;;;;;;;5032024;28;45567;-87
2021/08/22 12:43:47;;;;;;;;;3.00;2.75;;;;;;;;5031080;28;45594;-88
2021/08/22 12:46:12;;;;;;;;;3.00;2.00;;;;;;;;5016495;28;48596;-87
2021/08/22 12:48:37;;;;;;;;;2.33;1.33;;;;;;;;5032556;28;45419;-87
2021/08/22 12:51:07;;;;;;;;;4.00;2.75;;;;;;;;5032978;28;45501;-88
2021/08/22 12:53:32;;;;;;;;;0.75;0.75;;;;;;;;5034929;28;45369;-87
2021/08/22 12:55:57;;;;;;;;;2.00;2.00;;;;;;;;5015183;28;47004;-87
2021/08/22 12:58:22;;;;;;;;;1.00;1.00;;;;;;;;5033668;28;45772;-88
2021/08/22 13:00:48;;;;;;;;;2.00;2.00;;;;;;;;5014507;28;45346;-87
2021/08/22 13:03:13;;;;;;;;;2.00;1.67;;;;;;;;5031754;28;45662;-88
2021/08/22 13:05:38;;;;;;;;;2.00;1.00;;;;;;;;5013863;28;47265;-88
2021/08/22 13:08:03;;;;;;;;;1.00;1.00;;;;;;;;5031244;28;45490;-88
2021/08/22 13:10:29;;;;;;;;;3.00;3.00;;;;;;;;5014681;28;45769;-88
2021/08/22 13:12:54;;;;;;;;;3.25;1.25;;;;;;;;5034008;28;45377;-88
2021/08/22 13:15:19;;;;;;;;;1.75;1.75;;;;;;;;5031174;28;47476;-88
2021/08/22 13:17:45;;;;;;;;;1.67;1.67;;;;;;;;5033976;28;45593;-88
2021/08/22 13:20:10;;;;;;;;;4.00;1.00;;;;;;;;5014237;28;45532;-87
2021/08/22 13:22:35;;;;;;;;;0.50;0.50;;;;;;;;5003066;28;45508;-87
2021/08/22 13:25:00;;;;;;;;;4.00;1.00;;;;;;;;5041085;28;46589;-87
2021/08/22 13:27:25;;;;;;;;;1.00;0.67;;;;;;;;5015350;28;45588;-87
2021/08/22 13:29:51;;;;;;;;;4.00;1.00;;;;;;;;5034574;28;45532;-88
2021/08/22 13:32:16;;;;;;;;;1.67;1.00;;;;;;;;5028557;28;45499;-88
2021/08/22 13:34:41;;;;;;;;;2.00;1.00;;;;;;;;5031215;28;45600;-88
2021/08/22 13:37:06;;;;;;;;;4.00;1.00;;;;;;;;5034438;28;45339;-88
2021/08/22 13:39:32;;;;;;;;;2.67;1.00;;;;;;;;5031078;28;45517;-88
2021/08/22 13:41:57;;;;;;;;;2.33;1.00;;;;;;;;5034402;28;45455;-88
2021/08/22 13:44:22;;;;;;;;;2.00;2.00;;;;;;;;5014703;28;45531;-88
2021/08/22 13:46:47;;;;;;;;;1.00;1.00;;;;;;;;5030625;28;45762;-87
2021/08/22 13:49:12;;;;;;;;;1.33;1.33;;;;;;;;5032475;28;54600;-86
2021/08/22 13:51:37;;;;;;;;;1.00;1.00;;;;;;;;5032488;28;45583;-88
2021/08/22 13:54:03;;;;;;;;;1.00;1.00;;;;;;;;5014289;28;48618;-88
2021/08/22 13:56:28;;;;;;;;;1.75;1.75;;;;;;;;5033673;28;45585;-88
2021/08/22 13:58:53;;;;;;;;;0.25;0.25;;;;;;;;5031644;28;45362;-88
2021/08/22 14:01:18;;;;;;;;;1.00;1.00;;;;;;;;5032501;28;45367;-88
2021/08/22 14:03:44;;;;;;;;;1.00;1.00;;;;;;;;5032138;28;46071;-88
2021/08/22 14:06:09;;;;;;;;;2.50;0.50;;;;;;;;5031075;28;45519;-88
2021/08/22 14:08:34;;;;;;;;;2.00;2.00;;;;;;;;5033184;28;45438;-88
2021/08/22 14:10:59;;;;;;;;;1.67;1.00;;;;;;;;5031908;28;45545;-87
2021/08/22 14:13:25;;;;;;;;;1.00;1.00;;;;;;;;5015406;28;47292;-88
2021/08/22 14:15:50;;;;;;;;;0.67;0.67;;;;;;;;5016387;28;45682;-88
2021/08/22 14:18:15;;;;;;;;;1.00;1.00;;;;;;;;5035233;28;46644;-88
2021/08/22 14:20:40;;;;;;;;;1.00;0.50;;;;;;;;5036987;28;45431;-88
2021/08/22 14:23:07;;;;;;;;;1.50;1.00;;;;;;;;5034160;28;45748;-88
2021/08/22 14:25:32;;;;;;;;;1.00;1.00;;;;;;;;5034000;28;45572;-87
2021/08/22 14:27:57;;;;;;;;;2.00;1.00;;;;;;;;5037813;28;44850;-88
2021/08/22 14:30:23;;;;;;;;;1.00;1.00;;;;;;;;5033017;28;45552;-88
2021/08/22 14:32:48;;;;;;;;;1.00;1.00;;;;;;;;5034713;28;46314;-87
2021/08/22 14:35:13;;;;;;;;;1.25;1.00;;;;;;;;5032904;28;45505;-87
2021/08/22 14:37:40;;;;;;;;;3.00;2.00;;;;;;;;5034516;28;46027;-88
2021/08/22 14:40:06;;;;;;;;;1.25;1.00;;;;;;;;5035717;28;46552;-88
2021/08/22 14:42:32;;;;;;;;;1.00;1.00;;;;;;;;5033781;28;47502;-88